This is the latest recevied weather packets stored in our database for station/object M0XDC. If no packets are shown the sender has not sent any weather packets the latest 10 day(s).
| Time | Temp. | Humidity | Pressure | Rain* | Wind** | Luminosity | Snow |
|---|---|---|---|---|---|---|---|
| 1787909745 | 21.11° C | 65% | 1004.3 hPa | 0.25 mm | - | - | - |
| 1787909625 | 21.11° C | 65% | 1004.3 hPa | 0.25 mm | - | - | - |
| 1787909504 | 20.56° C | 67% | 1004.2 hPa | 0.25 mm | - | - | - |
| 1787909445 | 20.56° C | 67% | 1004.2 hPa | 0.25 mm | - | - | - |
| 1787909385 | 20.56° C | 67% | 1004.1 hPa | 0.25 mm | - | - | - |
| 1787909319 | 20.56° C | 67% | 1004.3 hPa | 0.25 mm | - | - | - |
| 1787909281 | 20.56° C | 67% | 1004.3 hPa | 0.25 mm | - | - | - |
| 1787909221 | 20.56° C | 69% | 1004.3 hPa | 0.25 mm | - | - | - |
| 1787908723 | 20° C | 69% | 1004.3 hPa | 0.25 mm | - | - | - |
| 1787906923 | 19.44° C | 73% | 1004.2 hPa | 0.25 mm | - | - | - |
| 1787905123 | 18.89° C | 76% | 1004.3 hPa | 0 mm | - | - | - |
| 1787903323 | 17.22° C | 84% | 1004.3 hPa | 0 mm | - | - | - |
| 1787901523 | 16.11° C | 89% | 1004.1 hPa | 0 mm | - | - | - |
| 1787899723 | 15.56° C | 92% | 1004 hPa | 0 mm | - | - | - |
| 1787897923 | 15° C | 93% | 1004.3 hPa | 0 mm | - | - | - |
| 1787896123 | 14.44° C | 93% | 1004.3 hPa | 0 mm | - | - | - |
| 1787894323 | 14.44° C | 93% | 1004.5 hPa | 0 mm | - | - | - |
| 1787892523 | 15° C | 93% | 1004.4 hPa | 0 mm | - | - | - |
| 1787890723 | 15° C | 92% | 1004.6 hPa | 0 mm | - | - | - |
| 1787888923 | 15.56° C | 90% | 1004.7 hPa | 0 mm | - | - | - |
| 1787887123 | 15.56° C | 89% | 1004.8 hPa | 0 mm | - | - | - |
| 1787885323 | 15° C | 90% | 1004.8 hPa | 0 mm | - | - | - |
| 1787883523 | 15.56° C | 90% | 1004.8 hPa | 0 mm | - | - | - |
| 1787881723 | 15.56° C | 88% | 1004.8 hPa | 0 mm | - | - | - |
| 1787879923 | 16.11° C | 86% | 1005.1 hPa | 0 mm | - | - | - |
* Rain latest hour (hover to see other rain measurements)
** Current wind speed in m/s (hover to see current wind gust speed)